createdAt,value
2022-11-28T00:02:23.539Z,24
2022-11-28T00:07:39.924Z,19
2022-11-28T00:12:56.452Z,19
2022-11-28T00:18:12.963Z,19
2022-11-28T00:23:29.497Z,20
2022-11-28T00:28:45.993Z,16
2022-11-28T00:34:02.519Z,13
2022-11-28T00:39:19.043Z,14
2022-11-28T00:44:35.532Z,12
2022-11-28T00:49:52.094Z,11
2022-11-28T00:55:08.687Z,10
2022-11-28T01:00:25.185Z,13
2022-11-28T01:05:41.843Z,10
2022-11-28T01:10:58.326Z,14
2022-11-28T01:16:14.901Z,8
2022-11-28T01:21:31.345Z,11
2022-11-28T01:26:47.773Z,13
2022-11-28T01:32:04.293Z,10
2022-11-28T01:37:20.788Z,13
2022-11-28T01:42:37.312Z,13
2022-11-28T01:47:53.899Z,10
2022-11-28T01:53:15.382Z,11
2022-11-28T01:58:31.895Z,11
2022-11-28T02:03:48.402Z,7
2022-11-28T02:09:04.924Z,11
2022-11-28T02:14:21.446Z,11
2022-11-28T02:19:37.934Z,12
2022-11-28T02:24:54.428Z,12
2022-11-28T02:30:10.934Z,12
2022-11-28T02:35:27.460Z,10
2022-11-28T02:40:43.919Z,10
2022-11-28T02:46:04.228Z,11
2022-11-28T02:51:20.668Z,11
2022-11-28T02:56:37.184Z,14
2022-11-28T03:01:53.703Z,8
2022-11-28T03:07:10.156Z,11
2022-11-28T03:12:26.734Z,12
2022-11-28T03:17:43.238Z,12
2022-11-28T03:22:59.739Z,12
2022-11-28T03:28:16.193Z,10
2022-11-28T03:33:32.664Z,7
2022-11-28T03:38:49.140Z,8
2022-11-28T03:44:05.621Z,8
2022-11-28T03:49:22.123Z,10
2022-11-28T03:54:38.716Z,10
2022-11-28T03:59:55.205Z,10
2022-11-28T04:05:11.663Z,9
2022-11-28T04:10:28.179Z,6
2022-11-28T04:15:44.670Z,10
2022-11-28T04:21:01.892Z,9
2022-11-28T04:26:18.349Z,10
2022-11-28T04:31:34.905Z,11
2022-11-28T04:36:51.387Z,9
2022-11-28T04:42:08.594Z,9
2022-11-28T04:47:25.030Z,9
2022-11-28T04:52:41.507Z,11
2022-11-28T04:57:57.996Z,8
2022-11-28T05:03:14.514Z,11
2022-11-28T05:08:30.953Z,14
2022-11-28T05:13:47.449Z,17
2022-11-28T05:19:03.939Z,19
2022-11-28T05:24:22.262Z,18
2022-11-28T05:29:36.871Z,16
2022-11-28T05:34:53.363Z,20
2022-11-28T05:40:16.036Z,14
2022-11-28T05:45:32.637Z,20
2022-11-28T05:50:49.131Z,22
2022-11-28T05:56:05.716Z,35
2022-11-28T06:01:22.823Z,38
2022-11-28T06:06:39.369Z,33
2022-11-28T06:11:55.837Z,39
2022-11-28T06:17:12.398Z,34
2022-11-28T06:22:28.929Z,31
2022-11-28T06:27:45.427Z,32
2022-11-28T06:33:02.295Z,32
2022-11-28T06:38:18.832Z,34
2022-11-28T06:43:35.080Z,34
2022-11-28T06:48:51.560Z,32
2022-11-28T06:54:08.707Z,33
2022-11-28T06:59:25.247Z,32
2022-11-28T07:04:41.812Z,32
2022-11-28T07:10:03.233Z,32
2022-11-28T07:15:19.756Z,33
2022-11-28T07:20:36.281Z,31
2022-11-28T07:25:52.824Z,35
2022-11-28T07:31:09.395Z,35
2022-11-28T07:36:25.913Z,37
2022-11-28T07:41:42.463Z,46
2022-11-28T07:46:59.152Z,46
2022-11-28T07:52:15.254Z,52
2022-11-28T07:57:31.757Z,47
2022-11-28T08:02:48.056Z,46
2022-11-28T08:08:04.663Z,33
2022-11-28T08:13:21.067Z,32
2022-11-28T08:18:37.578Z,27
2022-11-28T08:23:53.997Z,34
2022-11-28T08:29:10.497Z,38
2022-11-28T08:34:27.001Z,31
2022-11-28T08:39:43.849Z,25
2022-11-28T08:45:00.078Z,25
2022-11-28T08:50:16.554Z,22
2022-11-28T08:55:35.555Z,19
2022-11-28T09:00:49.434Z,19
2022-11-28T09:06:05.936Z,14
2022-11-28T09:11:22.362Z,16
2022-11-28T09:16:38.866Z,18
2022-11-28T09:21:57.881Z,15
2022-11-28T09:27:11.782Z,24
2022-11-28T09:32:28.233Z,18
2022-11-28T09:37:44.648Z,17
2022-11-28T09:43:01.922Z,18
2022-11-28T09:48:18.423Z,14
2022-11-28T09:53:34.853Z,14
2022-11-28T09:58:51.290Z,13
2022-11-28T10:04:07.824Z,11
2022-11-28T10:09:24.265Z,14
2022-11-28T10:14:40.675Z,11
2022-11-28T10:19:57.429Z,10
2022-11-28T10:25:13.624Z,10
2022-11-28T10:30:30.188Z,11
2022-11-28T10:35:46.559Z,9
2022-11-28T10:41:03.370Z,12
2022-11-28T10:46:20.108Z,11
2022-11-28T10:53:30.175Z,11
2022-11-28T10:58:46.592Z,9
2022-11-28T11:04:03.025Z,10
2022-11-28T11:09:19.498Z,10
2022-11-28T11:14:35.886Z,10
2022-11-28T11:19:52.590Z,8
2022-11-28T11:25:09.137Z,10
2022-11-28T11:30:27.126Z,8
2022-11-28T11:35:41.898Z,10
2022-11-28T11:40:58.313Z,7
2022-11-28T11:46:14.787Z,7
2022-11-28T11:51:37.981Z,10
2022-11-28T11:56:51.206Z,8
2022-11-28T12:02:04.948Z,8
2022-11-28T12:07:21.362Z,10
2022-11-28T12:12:37.737Z,9
2022-11-28T12:17:58.687Z,8
2022-11-28T12:23:15.761Z,8
2022-11-28T12:28:27.145Z,8
2022-11-28T12:33:43.580Z,10
2022-11-28T12:39:00.025Z,11
2022-11-28T12:44:16.460Z,11
2022-11-28T12:49:32.915Z,9
2022-11-28T12:54:49.373Z,9
2022-11-28T13:00:09.049Z,9
2022-11-28T13:05:22.292Z,9
2022-11-28T13:10:38.794Z,8
2022-11-28T13:15:55.376Z,10
2022-11-28T13:21:11.712Z,10
2022-11-28T13:26:28.198Z,8
2022-11-28T13:31:44.712Z,9
2022-11-28T13:42:43.861Z,9
2022-11-28T13:47:34.777Z,9
2022-11-28T13:52:51.246Z,10
2022-11-28T13:58:07.700Z,10
2022-11-28T14:03:24.206Z,11
2022-11-28T14:08:40.692Z,9
2022-11-28T14:13:57.173Z,13
2022-11-28T14:19:13.636Z,12
2022-11-28T14:24:30.126Z,14
2022-11-28T14:29:46.583Z,11
2022-11-28T14:35:03.150Z,11
2022-11-28T14:40:19.560Z,11
2022-11-28T14:45:36.068Z,12
2022-11-28T14:51:00.641Z,12
2022-11-28T14:56:09.025Z,14
2022-11-28T15:01:25.453Z,12
2022-11-28T15:06:42.004Z,14
2022-11-28T15:11:58.682Z,13
2022-11-28T15:17:15.120Z,14
2022-11-28T15:22:31.597Z,14
2022-11-28T15:27:48.049Z,18
2022-11-28T15:33:04.554Z,15
2022-11-28T15:38:22.354Z,13
2022-11-28T15:43:38.838Z,17
2022-11-28T15:48:55.329Z,16
2022-11-28T15:54:14.923Z,18
2022-11-28T15:59:27.999Z,25
2022-11-28T16:04:45.345Z,38
2022-11-28T16:10:01.948Z,45
2022-11-28T16:15:18.755Z,38
2022-11-28T16:20:35.236Z,32
2022-11-28T16:25:51.762Z,32
2022-11-28T16:31:08.947Z,29
2022-11-28T16:36:25.906Z,30
2022-11-28T16:41:42.394Z,29
2022-11-28T16:46:58.861Z,27
2022-11-28T16:52:15.398Z,26
2022-11-28T16:57:33.128Z,24
2022-11-28T17:02:48.912Z,29
2022-11-28T17:08:05.354Z,29
2022-11-28T17:13:21.877Z,34
2022-11-28T17:18:38.978Z,37
2022-11-28T17:23:55.495Z,37
2022-11-28T17:29:11.975Z,33
2022-11-28T17:34:28.465Z,32
2022-11-28T17:39:45.017Z,27
2022-11-28T17:45:01.920Z,34
2022-11-28T17:50:18.384Z,38
2022-11-28T17:55:34.919Z,38
2022-11-28T18:00:54.982Z,36
2022-11-28T18:06:07.928Z,31
2022-11-28T18:11:24.387Z,31
2022-11-28T18:16:40.950Z,30
2022-11-28T18:21:57.379Z,29
2022-11-28T18:27:13.899Z,30
2022-11-28T18:32:30.379Z,30
2022-11-28T18:37:46.934Z,29
2022-11-28T18:43:03.403Z,36
2022-11-28T18:48:19.893Z,26
2022-11-28T18:53:36.365Z,26
2022-11-28T18:58:52.958Z,21
2022-11-28T19:04:09.390Z,22
2022-11-28T19:09:25.945Z,20
2022-11-28T19:14:42.408Z,22
2022-11-28T19:19:59.021Z,19
2022-11-28T19:25:15.501Z,19
2022-11-28T19:30:31.984Z,21
2022-11-28T19:35:48.447Z,21
2022-11-28T19:41:05.192Z,31
2022-11-28T19:46:21.730Z,34
2022-11-28T19:51:38.460Z,31
2022-11-28T19:56:54.745Z,31
2022-11-28T20:02:11.356Z,33
2022-11-28T20:07:28.181Z,35
2022-11-28T20:12:44.416Z,36
2022-11-28T20:18:05.863Z,35
2022-11-28T20:23:22.316Z,35
2022-11-28T20:28:38.601Z,33
2022-11-28T20:33:55.143Z,40
2022-11-28T20:39:11.968Z,40
2022-11-28T20:44:28.504Z,36
2022-11-28T20:49:44.978Z,48
2022-11-28T20:55:01.892Z,48
2022-11-28T21:00:22.273Z,39
2022-11-28T21:05:35.230Z,44
2022-11-28T21:10:51.708Z,42
2022-11-28T21:16:08.766Z,51
2022-11-28T21:21:25.650Z,54
2022-11-28T21:26:45.272Z,54
2022-11-28T21:31:59.464Z,54
2022-11-28T21:37:15.905Z,53
2022-11-28T21:42:32.460Z,51
2022-11-28T21:47:49.012Z,54
2022-11-28T21:53:06.152Z,55
2022-11-28T21:58:26.603Z,54
2022-11-28T22:03:39.242Z,48
2022-11-28T22:08:55.774Z,51
2022-11-28T22:14:12.268Z,50
2022-11-28T22:19:29.299Z,50
2022-11-28T22:24:46.835Z,46
2022-11-28T22:30:03.450Z,42
2022-11-28T22:35:19.868Z,41
2022-11-28T22:40:36.613Z,39
2022-11-28T22:45:53.170Z,38
2022-11-28T22:51:09.642Z,36
2022-11-28T22:56:26.714Z,36
2022-11-28T23:01:43.235Z,31
2022-11-28T23:07:03.210Z,33
2022-11-28T23:12:19.701Z,28
2022-11-28T23:17:36.202Z,26
2022-11-28T23:22:52.414Z,31
2022-11-28T23:28:08.888Z,29
2022-11-28T23:33:25.374Z,33
2022-11-28T23:38:41.864Z,29
2022-11-28T23:43:59.119Z,30
2022-11-28T23:49:15.665Z,24
2022-11-28T23:54:32.161Z,22
2022-11-28T23:59:48.615Z,22
